sensor_id;sensor_type;location;lat;lon;timestamp;P1;durP1;ratioP1;P2;durP2;ratioP2
69775;SDS011;57049;51.450;-2.516;2023-05-10T00:01:29;1999.90;;;999.90;;
69775;SDS011;57049;51.450;-2.516;2023-05-10T00:03:54;1999.90;;;999.90;;
69775;SDS011;57049;51.450;-2.516;2023-05-10T00:06:20;1999.90;;;999.90;;
69775;SDS011;57049;51.450;-2.516;2023-05-10T00:08:45;1999.90;;;999.90;;
69775;SDS011;57049;51.450;-2.516;2023-05-10T00:11:11;1999.90;;;999.90;;
69775;SDS011;57049;51.450;-2.516;2023-05-10T00:13:36;1999.90;;;999.90;;
69775;SDS011;57049;51.450;-2.516;2023-05-10T00:16:02;1999.90;;;999.90;;
69775;SDS011;57049;51.450;-2.516;2023-05-10T00:18:27;1999.90;;;999.90;;
69775;SDS011;57049;51.450;-2.516;2023-05-10T00:20:53;1999.90;;;999.90;;
69775;SDS011;57049;51.450;-2.516;2023-05-10T00:23:18;1999.90;;;999.90;;
69775;SDS011;57049;51.450;-2.516;2023-05-10T00:25:44;1999.90;;;999.90;;
69775;SDS011;57049;51.450;-2.516;2023-05-10T00:28:09;1999.90;;;999.90;;
69775;SDS011;57049;51.450;-2.516;2023-05-10T00:30:35;1999.90;;;999.90;;
69775;SDS011;57049;51.450;-2.516;2023-05-10T00:33:00;1999.90;;;999.90;;
69775;SDS011;57049;51.450;-2.516;2023-05-10T00:35:25;1999.90;;;999.90;;
69775;SDS011;57049;51.450;-2.516;2023-05-10T00:37:51;1539.32;;;759.83;;
69775;SDS011;57049;51.450;-2.516;2023-05-10T00:40:17;1999.90;;;999.90;;
69775;SDS011;57049;51.450;-2.516;2023-05-10T00:42:42;1999.90;;;999.90;;
69775;SDS011;57049;51.450;-2.516;2023-05-10T00:45:08;1999.90;;;999.90;;
69775;SDS011;57049;51.450;-2.516;2023-05-10T00:47:33;1999.90;;;999.90;;
69775;SDS011;57049;51.450;-2.516;2023-05-10T00:49:59;1157.13;;;534.80;;
69775;SDS011;57049;51.450;-2.516;2023-05-10T00:52:28;691.22;;;170.95;;
69775;SDS011;57049;51.450;-2.516;2023-05-10T00:54:55;277.20;;;67.45;;
69775;SDS011;57049;51.450;-2.516;2023-05-10T00:57:21;1999.90;;;999.90;;
69775;SDS011;57049;51.450;-2.516;2023-05-10T00:59:47;1999.90;;;999.90;;
69775;SDS011;57049;51.450;-2.516;2023-05-10T01:02:13;1080.82;;;507.48;;
69775;SDS011;57049;51.450;-2.516;2023-05-10T01:04:39;1999.90;;;999.90;;
69775;SDS011;57049;51.450;-2.516;2023-05-10T01:07:05;1999.90;;;999.90;;
69775;SDS011;57049;51.450;-2.516;2023-05-10T01:09:31;1999.90;;;999.90;;
69775;SDS011;57049;51.450;-2.516;2023-05-10T01:11:57;1999.90;;;999.90;;
69775;SDS011;57049;51.450;-2.516;2023-05-10T01:14:23;1999.90;;;999.90;;
69775;SDS011;57049;51.450;-2.516;2023-05-10T01:16:50;110.10;;;13.43;;
69775;SDS011;57049;51.450;-2.516;2023-05-10T01:19:19;269.00;;;36.63;;
69775;SDS011;57049;51.450;-2.516;2023-05-10T01:35:30;1514.97;;;752.47;;
69775;SDS011;57049;51.450;-2.516;2023-05-10T01:38:22;1999.90;;;999.90;;
69775;SDS011;57049;51.450;-2.516;2023-05-10T01:41:13;1569.25;;;756.80;;
69775;SDS011;57049;51.450;-2.516;2023-05-10T01:43:57;1999.90;;;999.90;;
69775;SDS011;57049;51.450;-2.516;2023-05-10T01:46:39;1999.90;;;999.90;;
69775;SDS011;57049;51.450;-2.516;2023-05-10T01:49:16;1999.90;;;999.90;;
69775;SDS011;57049;51.450;-2.516;2023-05-10T01:51:57;1999.90;;;999.90;;
69775;SDS011;57049;51.450;-2.516;2023-05-10T01:54:27;1999.90;;;999.90;;
69775;SDS011;57049;51.450;-2.516;2023-05-10T01:56:59;1999.90;;;999.90;;
69775;SDS011;57049;51.450;-2.516;2023-05-10T01:59:30;1999.90;;;999.90;;
69775;SDS011;57049;51.450;-2.516;2023-05-10T02:02:06;1999.90;;;999.90;;
69775;SDS011;57049;51.450;-2.516;2023-05-10T02:04:37;1999.90;;;999.90;;
69775;SDS011;57049;51.450;-2.516;2023-05-10T02:07:04;1999.90;;;999.90;;
69775;SDS011;57049;51.450;-2.516;2023-05-10T02:09:31;1999.90;;;999.90;;
69775;SDS011;57049;51.450;-2.516;2023-05-10T02:11:59;1999.90;;;999.90;;
69775;SDS011;57049;51.450;-2.516;2023-05-10T02:14:27;1999.90;;;999.90;;
69775;SDS011;57049;51.450;-2.516;2023-05-10T02:16:55;1999.90;;;999.90;;
69775;SDS011;57049;51.450;-2.516;2023-05-10T02:19:27;1999.90;;;999.90;;
69775;SDS011;57049;51.450;-2.516;2023-05-10T02:21:53;1999.90;;;999.90;;
69775;SDS011;57049;51.450;-2.516;2023-05-10T02:24:20;1999.90;;;999.90;;
69775;SDS011;57049;51.450;-2.516;2023-05-10T02:26:47;1999.90;;;999.90;;
69775;SDS011;57049;51.450;-2.516;2023-05-10T02:29:17;1999.90;;;999.90;;
69775;SDS011;57049;51.450;-2.516;2023-05-10T02:31:44;1999.90;;;999.90;;
69775;SDS011;57049;51.450;-2.516;2023-05-10T02:34:10;1999.90;;;999.90;;
69775;SDS011;57049;51.450;-2.516;2023-05-10T02:36:37;1999.90;;;999.90;;
69775;SDS011;57049;51.450;-2.516;2023-05-10T02:39:04;1999.90;;;999.90;;
69775;SDS011;57049;51.450;-2.516;2023-05-10T02:41:34;1999.90;;;999.90;;
69775;SDS011;57049;51.450;-2.516;2023-05-10T02:44:01;1999.90;;;999.90;;
69775;SDS011;57049;51.450;-2.516;2023-05-10T02:46:28;1999.90;;;999.90;;
69775;SDS011;57049;51.450;-2.516;2023-05-10T02:48:54;1999.90;;;999.90;;
69775;SDS011;57049;51.450;-2.516;2023-05-10T02:51:20;1999.90;;;999.90;;
69775;SDS011;57049;51.450;-2.516;2023-05-10T02:53:50;1999.90;;;999.90;;
69775;SDS011;57049;51.450;-2.516;2023-05-10T02:56:23;1999.90;;;999.90;;
69775;SDS011;57049;51.450;-2.516;2023-05-10T02:59:04;1999.90;;;999.90;;
69775;SDS011;57049;51.450;-2.516;2023-05-10T03:01:30;1999.90;;;999.90;;
69775;SDS011;57049;51.450;-2.516;2023-05-10T03:03:55;1999.90;;;999.90;;
69775;SDS011;57049;51.450;-2.516;2023-05-10T03:06:21;1999.90;;;999.90;;
69775;SDS011;57049;51.450;-2.516;2023-05-10T03:08:46;1999.90;;;999.90;;
69775;SDS011;57049;51.450;-2.516;2023-05-10T03:11:28;1999.90;;;999.90;;
69775;SDS011;57049;51.450;-2.516;2023-05-10T03:17:04;1999.90;;;999.90;;
69775;SDS011;57049;51.450;-2.516;2023-05-10T03:20:08;1999.90;;;999.90;;
69775;SDS011;57049;51.450;-2.516;2023-05-10T03:22:34;1999.90;;;999.90;;
69775;SDS011;57049;51.450;-2.516;2023-05-10T03:25:06;1999.90;;;999.90;;
69775;SDS011;57049;51.450;-2.516;2023-05-10T03:27:36;1999.90;;;999.90;;
69775;SDS011;57049;51.450;-2.516;2023-05-10T03:30:05;1999.90;;;999.90;;
69775;SDS011;57049;51.450;-2.516;2023-05-10T03:32:34;1999.90;;;999.90;;
69775;SDS011;57049;51.450;-2.516;2023-05-10T03:34:59;1999.90;;;999.90;;
69775;SDS011;57049;51.450;-2.516;2023-05-10T03:37:25;1999.90;;;999.90;;
69775;SDS011;57049;51.450;-2.516;2023-05-10T03:39:50;1999.90;;;999.90;;
69775;SDS011;57049;51.450;-2.516;2023-05-10T03:42:16;1999.90;;;999.90;;
69775;SDS011;57049;51.450;-2.516;2023-05-10T03:44:42;1999.90;;;999.90;;
69775;SDS011;57049;51.450;-2.516;2023-05-10T03:47:08;1999.90;;;999.90;;
69775;SDS011;57049;51.450;-2.516;2023-05-10T03:49:33;1999.90;;;999.90;;
69775;SDS011;57049;51.450;-2.516;2023-05-10T03:51:59;1999.90;;;999.90;;
69775;SDS011;57049;51.450;-2.516;2023-05-10T03:54:24;1999.90;;;999.90;;
69775;SDS011;57049;51.450;-2.516;2023-05-10T03:56:50;1999.90;;;999.90;;
69775;SDS011;57049;51.450;-2.516;2023-05-10T03:59:16;1999.90;;;999.90;;
69775;SDS011;57049;51.450;-2.516;2023-05-10T04:01:41;1999.90;;;999.90;;
69775;SDS011;57049;51.450;-2.516;2023-05-10T04:04:06;1999.90;;;999.90;;
69775;SDS011;57049;51.450;-2.516;2023-05-10T04:06:32;1999.90;;;999.90;;
69775;SDS011;57049;51.450;-2.516;2023-05-10T04:08:57;1999.90;;;999.90;;
69775;SDS011;57049;51.450;-2.516;2023-05-10T04:11:25;1999.90;;;999.90;;
69775;SDS011;57049;51.450;-2.516;2023-05-10T04:13:50;1999.90;;;999.90;;
69775;SDS011;57049;51.450;-2.516;2023-05-10T04:16:16;1999.90;;;999.90;;
69775;SDS011;57049;51.450;-2.516;2023-05-10T04:18:41;1999.90;;;999.90;;
69775;SDS011;57049;51.450;-2.516;2023-05-10T04:21:13;1999.90;;;999.90;;
69775;SDS011;57049;51.450;-2.516;2023-05-10T04:23:39;1999.90;;;999.90;;
69775;SDS011;57049;51.450;-2.516;2023-05-10T04:26:05;1999.90;;;999.90;;
69775;SDS011;57049;51.450;-2.516;2023-05-10T04:28:30;1999.90;;;999.90;;
69775;SDS011;57049;51.450;-2.516;2023-05-10T04:31:03;1999.90;;;999.90;;
69775;SDS011;57049;51.450;-2.516;2023-05-10T04:33:29;1999.90;;;999.90;;
69775;SDS011;57049;51.450;-2.516;2023-05-10T04:35:55;1999.90;;;999.90;;
69775;SDS011;57049;51.450;-2.516;2023-05-10T04:38:20;1999.90;;;999.90;;
69775;SDS011;57049;51.450;-2.516;2023-05-10T04:40:46;1999.90;;;999.90;;
69775;SDS011;57049;51.450;-2.516;2023-05-10T04:43:11;1999.90;;;999.90;;
69775;SDS011;57049;51.450;-2.516;2023-05-10T04:45:37;1999.90;;;999.90;;
69775;SDS011;57049;51.450;-2.516;2023-05-10T04:48:02;1999.90;;;999.90;;
69775;SDS011;57049;51.450;-2.516;2023-05-10T04:50:28;1999.90;;;999.90;;
69775;SDS011;57049;51.450;-2.516;2023-05-10T04:52:53;1999.90;;;999.90;;
69775;SDS011;57049;51.450;-2.516;2023-05-10T04:55:19;1999.90;;;999.90;;
69775;SDS011;57049;51.450;-2.516;2023-05-10T04:57:44;1999.90;;;999.90;;
69775;SDS011;57049;51.450;-2.516;2023-05-10T05:00:10;1999.90;;;999.90;;
69775;SDS011;57049;51.450;-2.516;2023-05-10T05:02:36;1999.90;;;999.90;;
69775;SDS011;57049;51.450;-2.516;2023-05-10T05:05:01;1999.90;;;999.90;;
69775;SDS011;57049;51.450;-2.516;2023-05-10T05:07:27;1999.90;;;999.90;;
69775;SDS011;57049;51.450;-2.516;2023-05-10T05:09:53;1999.90;;;999.90;;
69775;SDS011;57049;51.450;-2.516;2023-05-10T05:12:18;1999.90;;;999.90;;
69775;SDS011;57049;51.450;-2.516;2023-05-10T05:14:43;1999.90;;;999.90;;
69775;SDS011;57049;51.450;-2.516;2023-05-10T05:17:09;1999.90;;;999.90;;
69775;SDS011;57049;51.450;-2.516;2023-05-10T05:19:34;1999.90;;;999.90;;
69775;SDS011;57049;51.450;-2.516;2023-05-10T05:22:00;1999.90;;;999.90;;
69775;SDS011;57049;51.450;-2.516;2023-05-10T05:24:26;1999.90;;;999.90;;
69775;SDS011;57049;51.450;-2.516;2023-05-10T05:26:51;1999.90;;;999.90;;
69775;SDS011;57049;51.450;-2.516;2023-05-10T05:29:17;1999.90;;;999.90;;
69775;SDS011;57049;51.450;-2.516;2023-05-10T05:31:42;1999.90;;;999.90;;
69775;SDS011;57049;51.450;-2.516;2023-05-10T05:34:08;1999.90;;;999.90;;
69775;SDS011;57049;51.450;-2.516;2023-05-10T05:36:35;1999.90;;;999.90;;
69775;SDS011;57049;51.450;-2.516;2023-05-10T05:39:03;1999.90;;;999.90;;
69775;SDS011;57049;51.450;-2.516;2023-05-10T05:41:28;1999.90;;;999.90;;
69775;SDS011;57049;51.450;-2.516;2023-05-10T05:43:54;1999.90;;;999.90;;
69775;SDS011;57049;51.450;-2.516;2023-05-10T05:46:20;1999.90;;;999.90;;
69775;SDS011;57049;51.450;-2.516;2023-05-10T05:48:45;1999.90;;;999.90;;
69775;SDS011;57049;51.450;-2.516;2023-05-10T05:51:11;1999.90;;;999.90;;
69775;SDS011;57049;51.450;-2.516;2023-05-10T05:53:36;261.63;;;43.03;;
69775;SDS011;57049;51.450;-2.516;2023-05-10T05:56:01;392.67;;;85.03;;
69775;SDS011;57049;51.450;-2.516;2023-05-10T05:58:27;598.67;;;109.85;;
69775;SDS011;57049;51.450;-2.516;2023-05-10T06:00:53;420.60;;;104.93;;
69775;SDS011;57049;51.450;-2.516;2023-05-10T06:03:19;1103.45;;;534.95;;
69775;SDS011;57049;51.450;-2.516;2023-05-10T06:05:44;488.33;;;114.90;;
69775;SDS011;57049;51.450;-2.516;2023-05-10T06:08:10;482.97;;;115.57;;
69775;SDS011;57049;51.450;-2.516;2023-05-10T06:10:35;853.50;;;329.13;;
69775;SDS011;57049;51.450;-2.516;2023-05-10T06:13:01;437.80;;;102.23;;
69775;SDS011;57049;51.450;-2.516;2023-05-10T06:15:27;412.80;;;114.95;;
69775;SDS011;57049;51.450;-2.516;2023-05-10T06:17:53;451.65;;;118.30;;
69775;SDS011;57049;51.450;-2.516;2023-05-10T06:20:18;675.30;;;165.77;;
69775;SDS011;57049;51.450;-2.516;2023-05-10T06:22:43;466.93;;;115.43;;
69775;SDS011;57049;51.450;-2.516;2023-05-10T06:25:09;530.23;;;146.13;;
69775;SDS011;57049;51.450;-2.516;2023-05-10T06:27:35;229.57;;;65.18;;
69775;SDS011;57049;51.450;-2.516;2023-05-10T06:30:00;367.27;;;124.20;;
69775;SDS011;57049;51.450;-2.516;2023-05-10T06:32:27;250.68;;;60.63;;
69775;SDS011;57049;51.450;-2.516;2023-05-10T06:34:53;335.10;;;98.20;;
69775;SDS011;57049;51.450;-2.516;2023-05-10T06:37:18;72.90;;;62.83;;
69775;SDS011;57049;51.450;-2.516;2023-05-10T06:39:44;76.80;;;63.57;;
69775;SDS011;57049;51.450;-2.516;2023-05-10T06:42:09;264.98;;;112.65;;
69775;SDS011;57049;51.450;-2.516;2023-05-10T06:44:35;369.77;;;131.73;;
69775;SDS011;57049;51.450;-2.516;2023-05-10T06:47:00;251.33;;;101.83;;
69775;SDS011;57049;51.450;-2.516;2023-05-10T06:49:26;219.37;;;115.53;;
69775;SDS011;57049;51.450;-2.516;2023-05-10T06:51:51;240.27;;;89.05;;
69775;SDS011;57049;51.450;-2.516;2023-05-10T06:54:16;199.47;;;92.53;;
69775;SDS011;57049;51.450;-2.516;2023-05-10T06:56:42;89.70;;;59.10;;
69775;SDS011;57049;51.450;-2.516;2023-05-10T06:59:08;237.93;;;123.43;;
69775;SDS011;57049;51.450;-2.516;2023-05-10T07:01:33;209.23;;;99.77;;
69775;SDS011;57049;51.450;-2.516;2023-05-10T07:03:59;281.95;;;128.40;;
69775;SDS011;57049;51.450;-2.516;2023-05-10T07:06:24;418.83;;;118.70;;
69775;SDS011;57049;51.450;-2.516;2023-05-10T07:08:50;689.50;;;156.17;;
69775;SDS011;57049;51.450;-2.516;2023-05-10T07:11:15;605.53;;;135.33;;
69775;SDS011;57049;51.450;-2.516;2023-05-10T07:13:41;551.13;;;111.15;;
69775;SDS011;57049;51.450;-2.516;2023-05-10T07:16:09;451.25;;;71.00;;
69775;SDS011;57049;51.450;-2.516;2023-05-10T07:18:35;321.73;;;87.40;;
69775;SDS011;57049;51.450;-2.516;2023-05-10T07:21:01;1125.70;;;536.15;;
69775;SDS011;57049;51.450;-2.516;2023-05-10T07:23:26;1999.90;;;999.90;;
69775;SDS011;57049;51.450;-2.516;2023-05-10T07:25:52;1082.72;;;516.67;;
69775;SDS011;57049;51.450;-2.516;2023-05-10T07:28:17;1999.90;;;999.90;;
69775;SDS011;57049;51.450;-2.516;2023-05-10T07:30:43;173.23;;;18.30;;
69775;SDS011;57049;51.450;-2.516;2023-05-10T07:33:09;1999.90;;;999.90;;
69775;SDS011;57049;51.450;-2.516;2023-05-10T07:35:36;1999.90;;;999.90;;
69775;SDS011;57049;51.450;-2.516;2023-05-10T07:38:02;1111.40;;;514.60;;
69775;SDS011;57049;51.450;-2.516;2023-05-10T07:40:27;1999.90;;;999.90;;
69775;SDS011;57049;51.450;-2.516;2023-05-10T07:42:53;1999.90;;;999.90;;
69775;SDS011;57049;51.450;-2.516;2023-05-10T07:45:19;1999.90;;;999.90;;
69775;SDS011;57049;51.450;-2.516;2023-05-10T07:47:44;1999.90;;;999.90;;
69775;SDS011;57049;51.450;-2.516;2023-05-10T07:50:10;1999.90;;;999.90;;
69775;SDS011;57049;51.450;-2.516;2023-05-10T07:52:35;1999.90;;;999.90;;
69775;SDS011;57049;51.450;-2.516;2023-05-10T07:55:01;1999.90;;;999.90;;
69775;SDS011;57049;51.450;-2.516;2023-05-10T07:57:26;1999.90;;;999.90;;
69775;SDS011;57049;51.450;-2.516;2023-05-10T07:59:52;1999.90;;;999.90;;
69775;SDS011;57049;51.450;-2.516;2023-05-10T08:02:17;1999.90;;;999.90;;
69775;SDS011;57049;51.450;-2.516;2023-05-10T08:04:43;1532.07;;;753.97;;
69775;SDS011;57049;51.450;-2.516;2023-05-10T08:07:08;1999.90;;;999.90;;
69775;SDS011;57049;51.450;-2.516;2023-05-10T08:09:33;1999.90;;;999.90;;
69775;SDS011;57049;51.450;-2.516;2023-05-10T08:11:59;1999.90;;;999.90;;
69775;SDS011;57049;51.450;-2.516;2023-05-10T08:14:25;1999.90;;;999.90;;
69775;SDS011;57049;51.450;-2.516;2023-05-10T08:16:51;1999.90;;;999.90;;
69775;SDS011;57049;51.450;-2.516;2023-05-10T08:19:16;1999.90;;;999.90;;
69775;SDS011;57049;51.450;-2.516;2023-05-10T08:21:44;1999.90;;;999.90;;
69775;SDS011;57049;51.450;-2.516;2023-05-10T08:24:10;1999.90;;;999.90;;
69775;SDS011;57049;51.450;-2.516;2023-05-10T08:26:36;1999.90;;;999.90;;
69775;SDS011;57049;51.450;-2.516;2023-05-10T08:29:02;28.97;;;9.13;;
69775;SDS011;57049;51.450;-2.516;2023-05-10T08:31:27;1999.90;;;999.90;;
69775;SDS011;57049;51.450;-2.516;2023-05-10T08:33:53;1999.90;;;999.90;;
69775;SDS011;57049;51.450;-2.516;2023-05-10T08:36:18;1999.90;;;999.90;;
69775;SDS011;57049;51.450;-2.516;2023-05-10T08:38:47;1999.90;;;999.90;;
69775;SDS011;57049;51.450;-2.516;2023-05-10T08:41:15;1999.90;;;999.90;;
69775;SDS011;57049;51.450;-2.516;2023-05-10T08:43:40;1999.90;;;999.90;;
69775;SDS011;57049;51.450;-2.516;2023-05-10T08:46:11;1999.90;;;999.90;;
69775;SDS011;57049;51.450;-2.516;2023-05-10T08:48:42;1999.90;;;999.90;;
69775;SDS011;57049;51.450;-2.516;2023-05-10T08:51:17;1999.90;;;999.90;;
69775;SDS011;57049;51.450;-2.516;2023-05-10T08:53:44;1999.90;;;999.90;;
69775;SDS011;57049;51.450;-2.516;2023-05-10T08:56:11;1999.90;;;999.90;;
69775;SDS011;57049;51.450;-2.516;2023-05-10T08:58:37;1132.10;;;518.15;;
69775;SDS011;57049;51.450;-2.516;2023-05-10T09:01:03;368.77;;;51.47;;
69775;SDS011;57049;51.450;-2.516;2023-05-10T09:03:30;440.65;;;77.28;;
69775;SDS011;57049;51.450;-2.516;2023-05-10T09:05:56;1187.45;;;536.83;;
69775;SDS011;57049;51.450;-2.516;2023-05-10T09:08:25;1512.97;;;693.27;;
69775;SDS011;57049;51.450;-2.516;2023-05-10T09:10:51;397.58;;;65.95;;
69775;SDS011;57049;51.450;-2.516;2023-05-10T09:13:17;418.17;;;61.87;;
69775;SDS011;57049;51.450;-2.516;2023-05-10T09:15:44;436.10;;;69.13;;
69775;SDS011;57049;51.450;-2.516;2023-05-10T09:18:10;720.63;;;288.85;;
69775;SDS011;57049;51.450;-2.516;2023-05-10T09:20:36;369.27;;;72.97;;
69775;SDS011;57049;51.450;-2.516;2023-05-10T09:23:01;623.47;;;93.03;;
69775;SDS011;57049;51.450;-2.516;2023-05-10T09:25:27;388.83;;;90.83;;
69775;SDS011;57049;51.450;-2.516;2023-05-10T09:27:53;297.23;;;44.97;;
69775;SDS011;57049;51.450;-2.516;2023-05-10T09:30:25;833.00;;;363.73;;
69775;SDS011;57049;51.450;-2.516;2023-05-10T09:32:54;1999.90;;;999.90;;
69775;SDS011;57049;51.450;-2.516;2023-05-10T09:35:21;809.88;;;303.20;;
69775;SDS011;57049;51.450;-2.516;2023-05-10T09:37:49;341.02;;;53.75;;
69775;SDS011;57049;51.450;-2.516;2023-05-10T09:40:17;336.17;;;51.20;;
69775;SDS011;57049;51.450;-2.516;2023-05-10T09:42:51;1136.97;;;521.15;;
69775;SDS011;57049;51.450;-2.516;2023-05-10T09:45:16;1200.75;;;531.15;;
69775;SDS011;57049;51.450;-2.516;2023-05-10T09:47:42;1999.90;;;999.90;;
69775;SDS011;57049;51.450;-2.516;2023-05-10T09:50:07;533.63;;;99.10;;
69775;SDS011;57049;51.450;-2.516;2023-05-10T09:55:22;559.15;;;84.47;;
69775;SDS011;57049;51.450;-2.516;2023-05-10T09:57:50;651.78;;;109.28;;
69775;SDS011;57049;51.450;-2.516;2023-05-10T10:00:24;338.92;;;57.58;;
69775;SDS011;57049;51.450;-2.516;2023-05-10T10:02:56;509.17;;;93.50;;
69775;SDS011;57049;51.450;-2.516;2023-05-10T10:05:30;1270.13;;;545.72;;
69775;SDS011;57049;51.450;-2.516;2023-05-10T10:08:00;583.38;;;106.28;;
69775;SDS011;57049;51.450;-2.516;2023-05-10T10:10:28;834.78;;;318.40;;
69775;SDS011;57049;51.450;-2.516;2023-05-10T10:12:55;408.77;;;79.43;;
69775;SDS011;57049;51.450;-2.516;2023-05-10T10:15:21;1999.90;;;999.90;;
69775;SDS011;57049;51.450;-2.516;2023-05-10T10:17:48;645.25;;;135.35;;
69775;SDS011;57049;51.450;-2.516;2023-05-10T10:20:14;1527.83;;;707.53;;
69775;SDS011;57049;51.450;-2.516;2023-05-10T10:22:40;739.28;;;143.32;;
69775;SDS011;57049;51.450;-2.516;2023-05-10T10:25:07;637.10;;;142.65;;
69775;SDS011;57049;51.450;-2.516;2023-05-10T10:35:53;380.98;;;72.60;;
69775;SDS011;57049;51.450;-2.516;2023-05-10T10:38:20;406.48;;;105.18;;
69775;SDS011;57049;51.450;-2.516;2023-05-10T10:40:47;573.10;;;145.60;;
69775;SDS011;57049;51.450;-2.516;2023-05-10T10:43:22;308.10;;;69.22;;
69775;SDS011;57049;51.450;-2.516;2023-05-10T10:48:50;1202.88;;;538.67;;
69775;SDS011;57049;51.450;-2.516;2023-05-10T10:51:39;1999.90;;;999.90;;
69775;SDS011;57049;51.450;-2.516;2023-05-10T10:54:11;1999.90;;;999.90;;
69775;SDS011;57049;51.450;-2.516;2023-05-10T10:56:37;1630.63;;;771.60;;
69775;SDS011;57049;51.450;-2.516;2023-05-10T10:59:02;721.42;;;291.77;;
69775;SDS011;57049;51.450;-2.516;2023-05-10T11:01:32;1999.90;;;999.90;;
69775;SDS011;57049;51.450;-2.516;2023-05-10T11:06:28;1071.33;;;394.53;;
69775;SDS011;57049;51.450;-2.516;2023-05-10T11:08:56;485.88;;;83.97;;
69775;SDS011;57049;51.450;-2.516;2023-05-10T11:11:22;456.20;;;92.93;;
69775;SDS011;57049;51.450;-2.516;2023-05-10T11:13:48;499.33;;;109.00;;
69775;SDS011;57049;51.450;-2.516;2023-05-10T11:16:18;1139.07;;;430.50;;
69775;SDS011;57049;51.450;-2.516;2023-05-10T11:19:09;616.67;;;116.70;;
69775;SDS011;57049;51.450;-2.516;2023-05-10T11:21:46;630.17;;;121.38;;
69775;SDS011;57049;51.450;-2.516;2023-05-10T11:24:13;484.63;;;95.75;;
69775;SDS011;57049;51.450;-2.516;2023-05-10T11:26:40;701.60;;;143.63;;
69775;SDS011;57049;51.450;-2.516;2023-05-10T11:29:05;765.78;;;197.70;;
69775;SDS011;57049;51.450;-2.516;2023-05-10T11:31:31;562.40;;;142.43;;
69775;SDS011;57049;51.450;-2.516;2023-05-10T11:33:57;773.00;;;174.27;;
69775;SDS011;57049;51.450;-2.516;2023-05-10T11:36:24;723.30;;;150.13;;
69775;SDS011;57049;51.450;-2.516;2023-05-10T11:38:52;558.20;;;122.90;;
69775;SDS011;57049;51.450;-2.516;2023-05-10T11:41:19;529.53;;;94.82;;
69775;SDS011;57049;51.450;-2.516;2023-05-10T11:43:54;582.25;;;99.60;;
69775;SDS011;57049;51.450;-2.516;2023-05-10T11:46:21;560.40;;;126.03;;
69775;SDS011;57049;51.450;-2.516;2023-05-10T11:48:52;914.20;;;341.92;;
69775;SDS011;57049;51.450;-2.516;2023-05-10T11:51:22;484.13;;;135.43;;
69775;SDS011;57049;51.450;-2.516;2023-05-10T11:53:49;605.15;;;143.63;;
69775;SDS011;57049;51.450;-2.516;2023-05-10T11:56:16;295.58;;;62.38;;
69775;SDS011;57049;51.450;-2.516;2023-05-10T11:58:41;208.50;;;31.83;;
69775;SDS011;57049;51.450;-2.516;2023-05-10T12:01:07;390.07;;;118.10;;
69775;SDS011;57049;51.450;-2.516;2023-05-10T12:03:35;434.80;;;124.55;;
69775;SDS011;57049;51.450;-2.516;2023-05-10T12:06:01;469.77;;;130.90;;
69775;SDS011;57049;51.450;-2.516;2023-05-10T12:08:27;321.88;;;64.43;;
69775;SDS011;57049;51.450;-2.516;2023-05-10T12:11:03;385.73;;;148.77;;
69775;SDS011;57049;51.450;-2.516;2023-05-10T12:13:40;994.80;;;432.53;;
69775;SDS011;57049;51.450;-2.516;2023-05-10T12:16:39;594.47;;;141.20;;
69775;SDS011;57049;51.450;-2.516;2023-05-10T12:18:58;494.30;;;143.38;;
69775;SDS011;57049;51.450;-2.516;2023-05-10T12:21:25;606.78;;;164.93;;
69775;SDS011;57049;51.450;-2.516;2023-05-10T12:23:54;614.67;;;187.05;;
69775;SDS011;57049;51.450;-2.516;2023-05-10T12:26:24;838.47;;;208.83;;
69775;SDS011;57049;51.450;-2.516;2023-05-10T12:28:52;557.38;;;130.52;;
69775;SDS011;57049;51.450;-2.516;2023-05-10T12:31:18;861.97;;;216.00;;
69775;SDS011;57049;51.450;-2.516;2023-05-10T12:33:44;777.57;;;190.40;;
69775;SDS011;57049;51.450;-2.516;2023-05-10T12:36:11;595.70;;;169.40;;
69775;SDS011;57049;51.450;-2.516;2023-05-10T12:38:40;764.10;;;188.88;;
69775;SDS011;57049;51.450;-2.516;2023-05-10T12:41:11;535.38;;;135.80;;
69775;SDS011;57049;51.450;-2.516;2023-05-10T12:43:38;669.47;;;154.88;;
69775;SDS011;57049;51.450;-2.516;2023-05-10T12:48:41;576.90;;;165.93;;
69775;SDS011;57049;51.450;-2.516;2023-05-10T12:51:07;672.58;;;184.80;;
69775;SDS011;57049;51.450;-2.516;2023-05-10T12:53:34;770.10;;;222.50;;
69775;SDS011;57049;51.450;-2.516;2023-05-10T12:56:00;605.63;;;141.73;;
69775;SDS011;57049;51.450;-2.516;2023-05-10T12:58:26;653.07;;;150.47;;
69775;SDS011;57049;51.450;-2.516;2023-05-10T13:00:52;504.30;;;116.80;;
69775;SDS011;57049;51.450;-2.516;2023-05-10T13:03:17;701.67;;;141.97;;
69775;SDS011;57049;51.450;-2.516;2023-05-10T13:05:43;502.10;;;193.27;;
69775;SDS011;57049;51.450;-2.516;2023-05-10T13:08:08;633.38;;;183.43;;
69775;SDS011;57049;51.450;-2.516;2023-05-10T13:10:34;918.13;;;385.07;;
69775;SDS011;57049;51.450;-2.516;2023-05-10T13:12:59;181.00;;;57.70;;
69775;SDS011;57049;51.450;-2.516;2023-05-10T13:15:26;256.90;;;94.50;;
69775;SDS011;57049;51.450;-2.516;2023-05-10T13:17:53;247.45;;;96.68;;
69775;SDS011;57049;51.450;-2.516;2023-05-10T13:20:19;142.75;;;34.88;;
69775;SDS011;57049;51.450;-2.516;2023-05-10T13:22:44;81.43;;;42.17;;
69775;SDS011;57049;51.450;-2.516;2023-05-10T13:25:10;387.37;;;117.63;;
69775;SDS011;57049;51.450;-2.516;2023-05-10T13:27:36;251.07;;;87.23;;
69775;SDS011;57049;51.450;-2.516;2023-05-10T13:30:02;131.77;;;64.28;;
69775;SDS011;57049;51.450;-2.516;2023-05-10T13:32:29;25.15;;;23.25;;
69775;SDS011;57049;51.450;-2.516;2023-05-10T13:34:54;448.13;;;151.37;;
69775;SDS011;57049;51.450;-2.516;2023-05-10T13:37:20;1999.90;;;999.90;;
69775;SDS011;57049;51.450;-2.516;2023-05-10T13:39:46;230.85;;;83.03;;
69775;SDS011;57049;51.450;-2.516;2023-05-10T13:42:12;202.17;;;59.73;;
69775;SDS011;57049;51.450;-2.516;2023-05-10T13:44:37;238.20;;;86.35;;
69775;SDS011;57049;51.450;-2.516;2023-05-10T13:47:03;95.13;;;47.90;;
69775;SDS011;57049;51.450;-2.516;2023-05-10T13:49:29;264.27;;;68.63;;
69775;SDS011;57049;51.450;-2.516;2023-05-10T13:51:54;185.57;;;67.27;;
69775;SDS011;57049;51.450;-2.516;2023-05-10T13:54:20;440.48;;;105.57;;
69775;SDS011;57049;51.450;-2.516;2023-05-10T13:56:47;262.53;;;120.13;;
69775;SDS011;57049;51.450;-2.516;2023-05-10T13:59:13;119.75;;;48.72;;
69775;SDS011;57049;51.450;-2.516;2023-05-10T14:01:39;177.75;;;63.67;;
69775;SDS011;57049;51.450;-2.516;2023-05-10T14:04:08;499.80;;;140.20;;
69775;SDS011;57049;51.450;-2.516;2023-05-10T14:06:38;501.30;;;135.57;;
69775;SDS011;57049;51.450;-2.516;2023-05-10T14:09:03;653.10;;;155.75;;
69775;SDS011;57049;51.450;-2.516;2023-05-10T14:11:29;443.63;;;161.47;;
69775;SDS011;57049;51.450;-2.516;2023-05-10T14:13:54;303.20;;;94.20;;
69775;SDS011;57049;51.450;-2.516;2023-05-10T14:16:20;231.57;;;84.27;;
69775;SDS011;57049;51.450;-2.516;2023-05-10T14:18:45;149.20;;;66.17;;